Aeroporto :
LOGIN :

Iscrizione | Disclaimer

   EN    FR    IT 

 










Sommario :    VFR   VFR Marginale   IFR   IFR Intensivo   IFR Molto Intensivo
Visibilità : 
Base nubi : 
>= 8 km
>= 3000ft
5 / 8 km
1000 / 3000 ft
1500m / 5 km
500 / 1000 ft
800 / 1500m
200 / 500 ft
< 800m
< 200 ft
Simboli :   Temporali  Nebbia  Neve Forte  Precipitazioni Forti  Vento > 20 kt
SIGMETs :   Varie  Temporali  Ghiacco  Turbolenza  Onda orograficha  Ceneri Vulcaniche







- Altitudine del aeroporto : 465 ft
- Codice IATA : LEJ


EDDP - Leipzig Halle

ULTIMO METAR :
  • 210050Z 08005KT 4500 BR NSC 12/12 Q1001 TEMPO 5000

METARs OBSOLETI :
  • 210020Z 08005KT 4500 BR FEW020 12/11 Q1001 TEMPO 5000
  • 202350Z 08006KT 5000 BR FEW008 BKN018 13/13 Q1001 TEMPO 3000 BR BKN005
  • 202320Z 09004KT 8000 SCT005 BKN018 14/14 Q1001 TEMPO 3000 BR BKN005
  • 202250Z 08003KT 9999 BKN005 BKN025 15/14 Q1001 TEMPO 3000 BR SCT008
  • 202220Z 09004KT 9999 BKN006 15/14 Q1001 TEMPO 3000 BR SCT008

TAF TAF EDDP
Valido dal 21 a 00 ore il 22 a 00 ore UTC


202300Z 2100/2124 08004KT 8000 SCT020
BECMG 2100/2103 3500 BR BKN007
PROB30
TEMPO 2103/2107 0700 FG BKN003
BECMG 2107/2110 9999 SCT020
BECMG 2112/2114 33007KT
PROB30
TEMPO 2115/2120 30015G25KT 4000 TSRA BKN020CB
Nessun NOTAM noto per questo aeroporto.



MetMap, La meteo Aeronautica in un colpo d'occhio ! - Copyright ORBIFLY Dicembre 2007 - Disclaimer

ORBIFLY MET'MAP TEAM :

Programmazione e sviluppo : Alexandra Zaïnal
Concezione e sviluppo : Baudouin d'Aumeries
Co-Programmazione e sviluppo : Marc-Olivier Méhu
Supporto tecnico e logistico : Manuel Goepfert
Aiuto per la traduzione : Arnaldo La Scala

Contatto : metmap@orbifly.com




FONTI E CREDITI :

   NOAA